sensor_id;sensor_type;location;lat;lon;timestamp;P1;durP1;ratioP1;P2;durP2;ratioP2
26502;SDS011;14177;51.520;6.764;2022-07-29T00:01:03;6.80;;;1.30;;
26502;SDS011;14177;51.520;6.764;2022-07-29T00:03:31;4.05;;;1.15;;
26502;SDS011;14177;51.520;6.764;2022-07-29T00:05:58;4.35;;;0.93;;
26502;SDS011;14177;51.520;6.764;2022-07-29T00:08:26;3.35;;;1.20;;
26502;SDS011;14177;51.520;6.764;2022-07-29T00:10:53;5.85;;;0.93;;
26502;SDS011;14177;51.520;6.764;2022-07-29T00:13:20;2.67;;;1.00;;
26502;SDS011;14177;51.520;6.764;2022-07-29T00:15:58;3.50;;;0.88;;
26502;SDS011;14177;51.520;6.764;2022-07-29T00:18:30;6.15;;;1.40;;
26502;SDS011;14177;51.520;6.764;2022-07-29T00:20:58;6.85;;;0.88;;
26502;SDS011;14177;51.520;6.764;2022-07-29T00:23:25;4.32;;;0.90;;
26502;SDS011;14177;51.520;6.764;2022-07-29T00:25:53;4.28;;;1.00;;
26502;SDS011;14177;51.520;6.764;2022-07-29T00:28:20;7.25;;;1.20;;
26502;SDS011;14177;51.520;6.764;2022-07-29T00:30:47;3.33;;;1.08;;
26502;SDS011;14177;51.520;6.764;2022-07-29T00:33:14;2.67;;;0.80;;
26502;SDS011;14177;51.520;6.764;2022-07-29T00:35:41;3.75;;;0.98;;
26502;SDS011;14177;51.520;6.764;2022-07-29T00:38:11;1.83;;;0.57;;
26502;SDS011;14177;51.520;6.764;2022-07-29T00:40:43;3.47;;;1.00;;
26502;SDS011;14177;51.520;6.764;2022-07-29T00:43:11;2.50;;;0.80;;
26502;SDS011;14177;51.520;6.764;2022-07-29T00:45:40;5.57;;;1.20;;
26502;SDS011;14177;51.520;6.764;2022-07-29T00:48:08;4.25;;;0.85;;
26502;SDS011;14177;51.520;6.764;2022-07-29T00:50:36;3.58;;;0.98;;
26502;SDS011;14177;51.520;6.764;2022-07-29T00:53:08;7.47;;;1.10;;
26502;SDS011;14177;51.520;6.764;2022-07-29T00:55:37;3.30;;;0.93;;
26502;SDS011;14177;51.520;6.764;2022-07-29T00:58:05;5.65;;;1.92;;
26502;SDS011;14177;51.520;6.764;2022-07-29T01:00:32;4.22;;;0.80;;
26502;SDS011;14177;51.520;6.764;2022-07-29T01:03:00;6.13;;;0.82;;
26502;SDS011;14177;51.520;6.764;2022-07-29T01:05:27;4.53;;;0.80;;
26502;SDS011;14177;51.520;6.764;2022-07-29T01:08:15;1.98;;;0.80;;
26502;SDS011;14177;51.520;6.764;2022-07-29T01:10:43;4.72;;;0.98;;
26502;SDS011;14177;51.520;6.764;2022-07-29T01:13:13;6.15;;;1.30;;
26502;SDS011;14177;51.520;6.764;2022-07-29T01:15:43;3.67;;;0.90;;
26502;SDS011;14177;51.520;6.764;2022-07-29T01:18:31;2.08;;;0.70;;
26502;SDS011;14177;51.520;6.764;2022-07-29T01:24:33;4.57;;;0.77;;
26502;SDS011;14177;51.520;6.764;2022-07-29T01:27:45;3.50;;;0.80;;
26502;SDS011;14177;51.520;6.764;2022-07-29T01:30:38;2.70;;;1.00;;
26502;SDS011;14177;51.520;6.764;2022-07-29T01:33:10;4.72;;;0.98;;
26502;SDS011;14177;51.520;6.764;2022-07-29T01:36:04;3.78;;;1.15;;
26502;SDS011;14177;51.520;6.764;2022-07-29T01:38:50;6.07;;;1.38;;
26502;SDS011;14177;51.520;6.764;2022-07-29T01:41:34;5.32;;;0.90;;
26502;SDS011;14177;51.520;6.764;2022-07-29T01:44:11;2.08;;;0.88;;
26502;SDS011;14177;51.520;6.764;2022-07-29T01:46:49;2.47;;;1.10;;
26502;SDS011;14177;51.520;6.764;2022-07-29T01:49:29;3.85;;;1.10;;
26502;SDS011;14177;51.520;6.764;2022-07-29T01:52:03;2.25;;;0.73;;
26502;SDS011;14177;51.520;6.764;2022-07-29T01:54:55;4.65;;;1.08;;
26502;SDS011;14177;51.520;6.764;2022-07-29T01:57:26;3.05;;;0.90;;
26502;SDS011;14177;51.520;6.764;2022-07-29T01:59:57;2.03;;;0.68;;
26502;SDS011;14177;51.520;6.764;2022-07-29T02:02:37;3.95;;;0.90;;
26502;SDS011;14177;51.520;6.764;2022-07-29T02:05:10;2.40;;;1.02;;
26502;SDS011;14177;51.520;6.764;2022-07-29T02:07:41;2.65;;;1.15;;
26502;SDS011;14177;51.520;6.764;2022-07-29T02:10:11;3.97;;;1.08;;
26502;SDS011;14177;51.520;6.764;2022-07-29T02:12:40;4.40;;;1.25;;
26502;SDS011;14177;51.520;6.764;2022-07-29T02:15:16;3.55;;;1.35;;
26502;SDS011;14177;51.520;6.764;2022-07-29T02:17:55;3.40;;;1.25;;
26502;SDS011;14177;51.520;6.764;2022-07-29T02:20:28;3.40;;;1.23;;
26502;SDS011;14177;51.520;6.764;2022-07-29T02:22:56;3.90;;;0.82;;
26502;SDS011;14177;51.520;6.764;2022-07-29T02:25:26;4.05;;;1.08;;
26502;SDS011;14177;51.520;6.764;2022-07-29T02:28:04;2.63;;;0.80;;
26502;SDS011;14177;51.520;6.764;2022-07-29T02:30:35;9.00;;;1.30;;
26502;SDS011;14177;51.520;6.764;2022-07-29T02:33:06;3.67;;;1.00;;
26502;SDS011;14177;51.520;6.764;2022-07-29T02:35:38;2.70;;;0.90;;
26502;SDS011;14177;51.520;6.764;2022-07-29T02:38:09;4.55;;;1.08;;
26502;SDS011;14177;51.520;6.764;2022-07-29T02:41:01;2.83;;;0.88;;
26502;SDS011;14177;51.520;6.764;2022-07-29T02:43:38;1.63;;;0.90;;
26502;SDS011;14177;51.520;6.764;2022-07-29T02:46:11;3.47;;;0.95;;
26502;SDS011;14177;51.520;6.764;2022-07-29T02:48:59;7.07;;;1.10;;
26502;SDS011;14177;51.520;6.764;2022-07-29T02:51:40;2.90;;;0.90;;
26502;SDS011;14177;51.520;6.764;2022-07-29T02:54:17;4.70;;;0.95;;
26502;SDS011;14177;51.520;6.764;2022-07-29T02:59:27;2.55;;;1.10;;
26502;SDS011;14177;51.520;6.764;2022-07-29T03:02:00;4.78;;;1.08;;
26502;SDS011;14177;51.520;6.764;2022-07-29T03:04:31;1.58;;;0.93;;
26502;SDS011;14177;51.520;6.764;2022-07-29T03:07:00;2.75;;;1.20;;
26502;SDS011;14177;51.520;6.764;2022-07-29T03:09:28;2.92;;;0.90;;
26502;SDS011;14177;51.520;6.764;2022-07-29T03:11:56;2.03;;;0.82;;
26502;SDS011;14177;51.520;6.764;2022-07-29T03:14:24;7.18;;;0.93;;
26502;SDS011;14177;51.520;6.764;2022-07-29T03:16:52;4.30;;;1.13;;
26502;SDS011;14177;51.520;6.764;2022-07-29T03:19:19;2.88;;;1.00;;
26502;SDS011;14177;51.520;6.764;2022-07-29T03:21:47;6.60;;;0.95;;
26502;SDS011;14177;51.520;6.764;2022-07-29T03:24:31;2.58;;;0.75;;
26502;SDS011;14177;51.520;6.764;2022-07-29T03:27:01;2.50;;;0.88;;
26502;SDS011;14177;51.520;6.764;2022-07-29T03:29:30;5.25;;;0.93;;
26502;SDS011;14177;51.520;6.764;2022-07-29T03:31:59;5.35;;;1.25;;
26502;SDS011;14177;51.520;6.764;2022-07-29T03:34:34;4.20;;;1.10;;
26502;SDS011;14177;51.520;6.764;2022-07-29T03:37:03;3.35;;;1.00;;
26502;SDS011;14177;51.520;6.764;2022-07-29T03:39:33;6.22;;;0.90;;
26502;SDS011;14177;51.520;6.764;2022-07-29T03:42:06;1.40;;;0.82;;
26502;SDS011;14177;51.520;6.764;2022-07-29T03:44:38;3.45;;;1.20;;
26502;SDS011;14177;51.520;6.764;2022-07-29T03:47:09;4.03;;;0.90;;
26502;SDS011;14177;51.520;6.764;2022-07-29T03:49:37;5.18;;;0.95;;
26502;SDS011;14177;51.520;6.764;2022-07-29T03:52:06;4.05;;;1.17;;
26502;SDS011;14177;51.520;6.764;2022-07-29T03:54:34;6.45;;;1.73;;
26502;SDS011;14177;51.520;6.764;2022-07-29T03:57:02;2.70;;;1.10;;
26502;SDS011;14177;51.520;6.764;2022-07-29T03:59:32;3.75;;;1.30;;
26502;SDS011;14177;51.520;6.764;2022-07-29T04:02:02;3.15;;;1.00;;
26502;SDS011;14177;51.520;6.764;2022-07-29T04:04:32;3.28;;;1.60;;
26502;SDS011;14177;51.520;6.764;2022-07-29T04:07:01;5.65;;;1.20;;
26502;SDS011;14177;51.520;6.764;2022-07-29T04:09:29;2.67;;;1.10;;
26502;SDS011;14177;51.520;6.764;2022-07-29T04:11:57;7.90;;;1.27;;
26502;SDS011;14177;51.520;6.764;2022-07-29T04:14:30;4.30;;;1.20;;
26502;SDS011;14177;51.520;6.764;2022-07-29T04:16:59;2.92;;;1.10;;
26502;SDS011;14177;51.520;6.764;2022-07-29T04:19:27;8.25;;;1.30;;
26502;SDS011;14177;51.520;6.764;2022-07-29T04:21:55;7.75;;;1.20;;
26502;SDS011;14177;51.520;6.764;2022-07-29T04:24:23;4.47;;;1.17;;
26502;SDS011;14177;51.520;6.764;2022-07-29T04:26:50;2.50;;;1.30;;
26502;SDS011;14177;51.520;6.764;2022-07-29T04:29:18;4.22;;;1.60;;
26502;SDS011;14177;51.520;6.764;2022-07-29T04:31:46;6.13;;;1.30;;
26502;SDS011;14177;51.520;6.764;2022-07-29T04:34:13;3.47;;;1.40;;
26502;SDS011;14177;51.520;6.764;2022-07-29T04:36:41;7.78;;;1.70;;
26502;SDS011;14177;51.520;6.764;2022-07-29T04:39:08;8.20;;;1.55;;
26502;SDS011;14177;51.520;6.764;2022-07-29T04:41:36;3.67;;;1.48;;
26502;SDS011;14177;51.520;6.764;2022-07-29T04:44:03;5.53;;;1.70;;
26502;SDS011;14177;51.520;6.764;2022-07-29T04:46:32;9.63;;;1.50;;
26502;SDS011;14177;51.520;6.764;2022-07-29T04:49:00;3.10;;;1.50;;
26502;SDS011;14177;51.520;6.764;2022-07-29T04:51:28;6.47;;;1.63;;
26502;SDS011;14177;51.520;6.764;2022-07-29T04:53:55;3.75;;;1.80;;
26502;SDS011;14177;51.520;6.764;2022-07-29T04:56:21;3.20;;;1.75;;
26502;SDS011;14177;51.520;6.764;2022-07-29T04:58:51;5.28;;;1.90;;
26502;SDS011;14177;51.520;6.764;2022-07-29T05:01:18;3.72;;;1.60;;
26502;SDS011;14177;51.520;6.764;2022-07-29T05:03:45;3.63;;;1.70;;
26502;SDS011;14177;51.520;6.764;2022-07-29T05:06:13;6.57;;;1.27;;
26502;SDS011;14177;51.520;6.764;2022-07-29T05:08:40;3.28;;;1.67;;
26502;SDS011;14177;51.520;6.764;2022-07-29T05:11:07;3.45;;;1.50;;
26502;SDS011;14177;51.520;6.764;2022-07-29T05:13:38;6.05;;;1.70;;
26502;SDS011;14177;51.520;6.764;2022-07-29T05:16:12;7.43;;;1.83;;
26502;SDS011;14177;51.520;6.764;2022-07-29T05:18:40;5.70;;;1.70;;
26502;SDS011;14177;51.520;6.764;2022-07-29T05:21:08;3.75;;;1.50;;
26502;SDS011;14177;51.520;6.764;2022-07-29T05:23:35;8.27;;;2.00;;
26502;SDS011;14177;51.520;6.764;2022-07-29T05:26:02;4.20;;;1.52;;
26502;SDS011;14177;51.520;6.764;2022-07-29T05:28:32;7.20;;;1.83;;
26502;SDS011;14177;51.520;6.764;2022-07-29T05:31:01;6.22;;;1.67;;
26502;SDS011;14177;51.520;6.764;2022-07-29T05:33:28;4.30;;;1.40;;
26502;SDS011;14177;51.520;6.764;2022-07-29T05:36:02;6.45;;;1.60;;
26502;SDS011;14177;51.520;6.764;2022-07-29T05:38:33;4.63;;;1.63;;
26502;SDS011;14177;51.520;6.764;2022-07-29T05:41:02;4.65;;;1.70;;
26502;SDS011;14177;51.520;6.764;2022-07-29T05:43:31;5.07;;;1.77;;
26502;SDS011;14177;51.520;6.764;2022-07-29T05:45:59;4.82;;;1.80;;
26502;SDS011;14177;51.520;6.764;2022-07-29T05:48:28;4.43;;;1.58;;
26502;SDS011;14177;51.520;6.764;2022-07-29T05:50:55;5.60;;;1.75;;
26502;SDS011;14177;51.520;6.764;2022-07-29T05:53:22;3.65;;;1.85;;
26502;SDS011;14177;51.520;6.764;2022-07-29T05:55:49;4.78;;;1.60;;
26502;SDS011;14177;51.520;6.764;2022-07-29T05:58:17;2.88;;;1.70;;
26502;SDS011;14177;51.520;6.764;2022-07-29T06:00:45;4.47;;;1.83;;
26502;SDS011;14177;51.520;6.764;2022-07-29T06:03:12;3.28;;;1.70;;
26502;SDS011;14177;51.520;6.764;2022-07-29T06:05:40;3.53;;;1.58;;
26502;SDS011;14177;51.520;6.764;2022-07-29T06:08:07;5.57;;;1.90;;
26502;SDS011;14177;51.520;6.764;2022-07-29T06:10:34;2.50;;;1.42;;
26502;SDS011;14177;51.520;6.764;2022-07-29T06:13:02;1.70;;;1.30;;
26502;SDS011;14177;51.520;6.764;2022-07-29T06:15:30;4.20;;;1.75;;
26502;SDS011;14177;51.520;6.764;2022-07-29T06:17:58;5.45;;;1.52;;
26502;SDS011;14177;51.520;6.764;2022-07-29T06:20:28;3.67;;;1.65;;
26502;SDS011;14177;51.520;6.764;2022-07-29T06:22:58;3.97;;;1.63;;
26502;SDS011;14177;51.520;6.764;2022-07-29T06:25:26;3.08;;;1.63;;
26502;SDS011;14177;51.520;6.764;2022-07-29T06:27:56;4.72;;;1.88;;
26502;SDS011;14177;51.520;6.764;2022-07-29T06:30:25;6.20;;;1.90;;
26502;SDS011;14177;51.520;6.764;2022-07-29T06:32:52;3.42;;;1.85;;
26502;SDS011;14177;51.520;6.764;2022-07-29T06:35:20;2.55;;;1.70;;
26502;SDS011;14177;51.520;6.764;2022-07-29T06:38:11;4.60;;;1.65;;
26502;SDS011;14177;51.520;6.764;2022-07-29T06:41:15;3.65;;;1.95;;
26502;SDS011;14177;51.520;6.764;2022-07-29T06:43:42;3.13;;;1.58;;
26502;SDS011;14177;51.520;6.764;2022-07-29T06:46:20;3.83;;;1.58;;
26502;SDS011;14177;51.520;6.764;2022-07-29T06:48:49;5.65;;;1.90;;
26502;SDS011;14177;51.520;6.764;2022-07-29T06:51:18;5.32;;;1.90;;
26502;SDS011;14177;51.520;6.764;2022-07-29T06:53:49;12.50;;;2.20;;
26502;SDS011;14177;51.520;6.764;2022-07-29T06:56:28;4.70;;;1.98;;
26502;SDS011;14177;51.520;6.764;2022-07-29T06:59:05;6.75;;;1.70;;
26502;SDS011;14177;51.520;6.764;2022-07-29T07:01:39;8.00;;;1.92;;
26502;SDS011;14177;51.520;6.764;2022-07-29T07:04:09;6.03;;;1.98;;
26502;SDS011;14177;51.520;6.764;2022-07-29T07:06:37;5.57;;;2.05;;
26502;SDS011;14177;51.520;6.764;2022-07-29T07:09:04;3.15;;;1.85;;
26502;SDS011;14177;51.520;6.764;2022-07-29T07:11:31;3.00;;;1.98;;
26502;SDS011;14177;51.520;6.764;2022-07-29T07:13:58;6.10;;;2.13;;
26502;SDS011;14177;51.520;6.764;2022-07-29T07:16:29;7.07;;;2.08;;
26502;SDS011;14177;51.520;6.764;2022-07-29T07:18:57;5.55;;;1.92;;
26502;SDS011;14177;51.520;6.764;2022-07-29T07:21:24;6.65;;;1.92;;
26502;SDS011;14177;51.520;6.764;2022-07-29T07:23:55;6.60;;;2.33;;
26502;SDS011;14177;51.520;6.764;2022-07-29T07:26:22;7.85;;;2.22;;
26502;SDS011;14177;51.520;6.764;2022-07-29T07:28:49;6.57;;;2.13;;
26502;SDS011;14177;51.520;6.764;2022-07-29T07:31:16;4.45;;;2.58;;
26502;SDS011;14177;51.520;6.764;2022-07-29T07:33:43;6.40;;;2.22;;
26502;SDS011;14177;51.520;6.764;2022-07-29T07:36:11;8.13;;;2.33;;
26502;SDS011;14177;51.520;6.764;2022-07-29T07:38:38;4.18;;;2.13;;
26502;SDS011;14177;51.520;6.764;2022-07-29T07:41:05;4.25;;;2.15;;
26502;SDS011;14177;51.520;6.764;2022-07-29T07:43:32;8.77;;;2.45;;
26502;SDS011;14177;51.520;6.764;2022-07-29T07:45:59;3.72;;;1.95;;
26502;SDS011;14177;51.520;6.764;2022-07-29T07:48:26;6.25;;;2.53;;
26502;SDS011;14177;51.520;6.764;2022-07-29T07:50:53;5.18;;;2.50;;
26502;SDS011;14177;51.520;6.764;2022-07-29T07:53:20;6.32;;;2.50;;
26502;SDS011;14177;51.520;6.764;2022-07-29T07:55:48;4.07;;;2.17;;
26502;SDS011;14177;51.520;6.764;2022-07-29T07:58:35;7.22;;;2.60;;
26502;SDS011;14177;51.520;6.764;2022-07-29T08:01:02;5.47;;;2.33;;
26502;SDS011;14177;51.520;6.764;2022-07-29T08:03:29;6.68;;;2.38;;
26502;SDS011;14177;51.520;6.764;2022-07-29T08:05:56;7.28;;;2.38;;
26502;SDS011;14177;51.520;6.764;2022-07-29T08:08:23;6.55;;;2.65;;
26502;SDS011;14177;51.520;6.764;2022-07-29T08:10:50;5.28;;;2.15;;
26502;SDS011;14177;51.520;6.764;2022-07-29T08:13:28;5.88;;;2.10;;
26502;SDS011;14177;51.520;6.764;2022-07-29T08:15:56;4.88;;;2.30;;
26502;SDS011;14177;51.520;6.764;2022-07-29T08:18:27;9.38;;;3.35;;
26502;SDS011;14177;51.520;6.764;2022-07-29T08:20:56;3.67;;;2.20;;
26502;SDS011;14177;51.520;6.764;2022-07-29T08:23:24;5.38;;;2.35;;
26502;SDS011;14177;51.520;6.764;2022-07-29T08:26:11;8.25;;;2.53;;
26502;SDS011;14177;51.520;6.764;2022-07-29T08:28:40;3.83;;;2.20;;
26502;SDS011;14177;51.520;6.764;2022-07-29T08:31:12;6.75;;;2.35;;
26502;SDS011;14177;51.520;6.764;2022-07-29T08:33:39;5.05;;;2.50;;
26502;SDS011;14177;51.520;6.764;2022-07-29T08:36:06;6.13;;;2.50;;
26502;SDS011;14177;51.520;6.764;2022-07-29T08:38:34;4.55;;;2.50;;
26502;SDS011;14177;51.520;6.764;2022-07-29T08:41:01;2.83;;;2.30;;
26502;SDS011;14177;51.520;6.764;2022-07-29T08:43:28;6.38;;;2.60;;
26502;SDS011;14177;51.520;6.764;2022-07-29T08:45:56;8.63;;;3.00;;
26502;SDS011;14177;51.520;6.764;2022-07-29T08:48:23;6.43;;;2.80;;
26502;SDS011;14177;51.520;6.764;2022-07-29T08:50:54;4.32;;;2.40;;
26502;SDS011;14177;51.520;6.764;2022-07-29T08:53:24;9.13;;;3.17;;
26502;SDS011;14177;51.520;6.764;2022-07-29T08:55:55;9.23;;;3.05;;
26502;SDS011;14177;51.520;6.764;2022-07-29T08:58:23;6.68;;;2.90;;
26502;SDS011;14177;51.520;6.764;2022-07-29T09:00:55;5.00;;;2.47;;
26502;SDS011;14177;51.520;6.764;2022-07-29T09:03:25;4.25;;;2.80;;
26502;SDS011;14177;51.520;6.764;2022-07-29T09:05:58;7.00;;;2.92;;
26502;SDS011;14177;51.520;6.764;2022-07-29T09:08:25;6.90;;;3.08;;
26502;SDS011;14177;51.520;6.764;2022-07-29T09:10:53;7.32;;;3.47;;
26502;SDS011;14177;51.520;6.764;2022-07-29T09:13:25;7.15;;;3.10;;
26502;SDS011;14177;51.520;6.764;2022-07-29T09:15:52;4.13;;;2.85;;
26502;SDS011;14177;51.520;6.764;2022-07-29T09:21:14;7.72;;;3.35;;
26502;SDS011;14177;51.520;6.764;2022-07-29T09:24:13;9.57;;;2.70;;
26502;SDS011;14177;51.520;6.764;2022-07-29T09:26:41;4.40;;;2.85;;
26502;SDS011;14177;51.520;6.764;2022-07-29T09:29:20;7.00;;;3.10;;
26502;SDS011;14177;51.520;6.764;2022-07-29T09:31:51;4.10;;;2.72;;
26502;SDS011;14177;51.520;6.764;2022-07-29T09:34:22;9.20;;;2.83;;
26502;SDS011;14177;51.520;6.764;2022-07-29T09:36:54;6.30;;;3.13;;
26502;SDS011;14177;51.520;6.764;2022-07-29T09:39:27;7.82;;;2.78;;
26502;SDS011;14177;51.520;6.764;2022-07-29T09:42:02;7.57;;;2.78;;
26502;SDS011;14177;51.520;6.764;2022-07-29T09:44:44;5.68;;;2.75;;
26502;SDS011;14177;51.520;6.764;2022-07-29T09:47:16;7.55;;;2.67;;
26502;SDS011;14177;51.520;6.764;2022-07-29T09:49:58;6.32;;;3.00;;
26502;SDS011;14177;51.520;6.764;2022-07-29T09:52:27;7.70;;;2.10;;
26502;SDS011;14177;51.520;6.764;2022-07-29T09:55:04;5.10;;;2.40;;
26502;SDS011;14177;51.520;6.764;2022-07-29T09:57:33;6.07;;;2.80;;
26502;SDS011;14177;51.520;6.764;2022-07-29T10:02:38;6.80;;;2.92;;
26502;SDS011;14177;51.520;6.764;2022-07-29T10:05:22;5.20;;;2.38;;
26502;SDS011;14177;51.520;6.764;2022-07-29T10:08:01;7.05;;;2.42;;
26502;SDS011;14177;51.520;6.764;2022-07-29T10:10:29;4.95;;;2.50;;
26502;SDS011;14177;51.520;6.764;2022-07-29T10:15:37;7.72;;;2.50;;
26502;SDS011;14177;51.520;6.764;2022-07-29T10:18:12;6.93;;;2.50;;
26502;SDS011;14177;51.520;6.764;2022-07-29T10:20:40;8.18;;;2.47;;
26502;SDS011;14177;51.520;6.764;2022-07-29T10:23:08;4.03;;;1.98;;
26502;SDS011;14177;51.520;6.764;2022-07-29T10:25:35;2.47;;;2.00;;
26502;SDS011;14177;51.520;6.764;2022-07-29T10:28:04;7.00;;;2.10;;
26502;SDS011;14177;51.520;6.764;2022-07-29T10:30:32;4.78;;;1.85;;
26502;SDS011;14177;51.520;6.764;2022-07-29T10:42:53;6.43;;;2.20;;
26502;SDS011;14177;51.520;6.764;2022-07-29T10:45:26;8.75;;;2.05;;
26502;SDS011;14177;51.520;6.764;2022-07-29T10:48:03;4.03;;;1.98;;
26502;SDS011;14177;51.520;6.764;2022-07-29T10:50:51;9.38;;;3.50;;
26502;SDS011;14177;51.520;6.764;2022-07-29T10:53:21;17.05;;;7.05;;
26502;SDS011;14177;51.520;6.764;2022-07-29T11:01:47;5.65;;;2.42;;
26502;SDS011;14177;51.520;6.764;2022-07-29T11:07:13;6.38;;;2.90;;
26502;SDS011;14177;51.520;6.764;2022-07-29T11:09:42;5.47;;;2.67;;
26502;SDS011;14177;51.520;6.764;2022-07-29T11:15:05;5.45;;;2.58;;
26502;SDS011;14177;51.520;6.764;2022-07-29T11:20:38;7.10;;;2.58;;
26502;SDS011;14177;51.520;6.764;2022-07-29T11:28:51;6.88;;;2.95;;
26502;SDS011;14177;51.520;6.764;2022-07-29T11:31:43;7.20;;;3.13;;
26502;SDS011;14177;51.520;6.764;2022-07-29T11:34:18;7.50;;;3.05;;
26502;SDS011;14177;51.520;6.764;2022-07-29T11:45:16;5.70;;;2.95;;
26502;SDS011;14177;51.520;6.764;2022-07-29T11:48:06;8.40;;;3.00;;
26502;SDS011;14177;51.520;6.764;2022-07-29T11:50:56;8.95;;;3.42;;
26502;SDS011;14177;51.520;6.764;2022-07-29T11:53:25;4.45;;;3.10;;
26502;SDS011;14177;51.520;6.764;2022-07-29T11:55:57;6.70;;;2.95;;
26502;SDS011;14177;51.520;6.764;2022-07-29T11:58:28;5.07;;;2.90;;
26502;SDS011;14177;51.520;6.764;2022-07-29T12:00:55;8.70;;;3.03;;
26502;SDS011;14177;51.520;6.764;2022-07-29T12:03:30;5.60;;;2.97;;
26502;SDS011;14177;51.520;6.764;2022-07-29T12:06:03;3.92;;;2.50;;
26502;SDS011;14177;51.520;6.764;2022-07-29T12:08:43;5.15;;;2.63;;
26502;SDS011;14177;51.520;6.764;2022-07-29T12:11:19;8.85;;;2.97;;
26502;SDS011;14177;51.520;6.764;2022-07-29T12:13:49;4.85;;;2.63;;
26502;SDS011;14177;51.520;6.764;2022-07-29T12:16:18;6.28;;;3.20;;
26502;SDS011;14177;51.520;6.764;2022-07-29T12:18:58;6.35;;;2.83;;
26502;SDS011;14177;51.520;6.764;2022-07-29T12:21:27;9.55;;;2.80;;
26502;SDS011;14177;51.520;6.764;2022-07-29T12:24:25;5.32;;;2.60;;
26502;SDS011;14177;51.520;6.764;2022-07-29T12:26:53;5.15;;;2.80;;
26502;SDS011;14177;51.520;6.764;2022-07-29T12:29:23;7.40;;;2.92;;
26502;SDS011;14177;51.520;6.764;2022-07-29T12:32:01;9.48;;;3.03;;
26502;SDS011;14177;51.520;6.764;2022-07-29T12:34:31;4.80;;;2.55;;
26502;SDS011;14177;51.520;6.764;2022-07-29T12:36:58;5.07;;;2.47;;
26502;SDS011;14177;51.520;6.764;2022-07-29T12:39:27;5.30;;;2.70;;
26502;SDS011;14177;51.520;6.764;2022-07-29T12:41:54;5.65;;;2.67;;
26502;SDS011;14177;51.520;6.764;2022-07-29T12:44:49;6.80;;;2.53;;
26502;SDS011;14177;51.520;6.764;2022-07-29T12:47:17;4.85;;;2.22;;
26502;SDS011;14177;51.520;6.764;2022-07-29T12:49:46;5.97;;;2.50;;
26502;SDS011;14177;51.520;6.764;2022-07-29T12:52:27;5.97;;;2.40;;
26502;SDS011;14177;51.520;6.764;2022-07-29T12:54:58;7.95;;;2.40;;
26502;SDS011;14177;51.520;6.764;2022-07-29T12:57:25;5.28;;;2.55;;
26502;SDS011;14177;51.520;6.764;2022-07-29T13:00:00;4.30;;;2.45;;
26502;SDS011;14177;51.520;6.764;2022-07-29T13:02:37;7.47;;;2.92;;
26502;SDS011;14177;51.520;6.764;2022-07-29T13:05:07;6.25;;;3.00;;
26502;SDS011;14177;51.520;6.764;2022-07-29T13:07:35;5.70;;;2.80;;
26502;SDS011;14177;51.520;6.764;2022-07-29T13:10:22;6.47;;;2.88;;
26502;SDS011;14177;51.520;6.764;2022-07-29T13:13:06;4.78;;;2.88;;
26502;SDS011;14177;51.520;6.764;2022-07-29T13:15:40;4.93;;;2.88;;
26502;SDS011;14177;51.520;6.764;2022-07-29T13:18:26;3.97;;;2.40;;
26502;SDS011;14177;51.520;6.764;2022-07-29T13:20:55;4.32;;;2.20;;
26502;SDS011;14177;51.520;6.764;2022-07-29T13:23:23;4.03;;;2.05;;
26502;SDS011;14177;51.520;6.764;2022-07-29T13:25:50;7.57;;;2.47;;
26502;SDS011;14177;51.520;6.764;2022-07-29T13:28:19;4.72;;;2.03;;
26502;SDS011;14177;51.520;6.764;2022-07-29T13:30:47;6.95;;;2.17;;
26502;SDS011;14177;51.520;6.764;2022-07-29T13:33:14;4.07;;;1.95;;
26502;SDS011;14177;51.520;6.764;2022-07-29T13:35:41;6.65;;;2.58;;
26502;SDS011;14177;51.520;6.764;2022-07-29T13:38:08;5.45;;;1.90;;
26502;SDS011;14177;51.520;6.764;2022-07-29T13:40:36;5.53;;;1.90;;
26502;SDS011;14177;51.520;6.764;2022-07-29T13:43:03;9.43;;;2.25;;
26502;SDS011;14177;51.520;6.764;2022-07-29T13:45:30;6.53;;;1.88;;
26502;SDS011;14177;51.520;6.764;2022-07-29T13:47:57;7.45;;;2.08;;
26502;SDS011;14177;51.520;6.764;2022-07-29T13:50:24;6.70;;;2.15;;
26502;SDS011;14177;51.520;6.764;2022-07-29T13:52:50;5.00;;;2.03;;
26502;SDS011;14177;51.520;6.764;2022-07-29T13:55:18;7.28;;;2.05;;
26502;SDS011;14177;51.520;6.764;2022-07-29T13:57:45;3.90;;;1.65;;
26502;SDS011;14177;51.520;6.764;2022-07-29T14:00:13;4.53;;;1.58;;
26502;SDS011;14177;51.520;6.764;2022-07-29T14:02:41;2.90;;;1.70;;
26502;SDS011;14177;51.520;6.764;2022-07-29T14:05:13;4.53;;;1.67;;
26502;SDS011;14177;51.520;6.764;2022-07-29T14:07:42;4.72;;;1.70;;
26502;SDS011;14177;51.520;6.764;2022-07-29T14:10:10;6.53;;;1.88;;
26502;SDS011;14177;51.520;6.764;2022-07-29T14:12:37;9.20;;;1.80;;
26502;SDS011;14177;51.520;6.764;2022-07-29T14:15:04;4.00;;;1.23;;
26502;SDS011;14177;51.520;6.764;2022-07-29T14:17:31;5.63;;;1.90;;
26502;SDS011;14177;51.520;6.764;2022-07-29T14:19:58;3.63;;;1.70;;
26502;SDS011;14177;51.520;6.764;2022-07-29T14:22:25;5.47;;;1.70;;
26502;SDS011;14177;51.520;6.764;2022-07-29T14:24:52;4.63;;;2.00;;
26502;SDS011;14177;51.520;6.764;2022-07-29T14:27:19;7.30;;;1.80;;
26502;SDS011;14177;51.520;6.764;2022-07-29T14:30:03;6.13;;;2.08;;
26502;SDS011;14177;51.520;6.764;2022-07-29T14:32:32;4.95;;;1.70;;
26502;SDS011;14177;51.520;6.764;2022-07-29T14:34:59;7.30;;;1.77;;
26502;SDS011;14177;51.520;6.764;2022-07-29T14:37:25;6.13;;;1.80;;
26502;SDS011;14177;51.520;6.764;2022-07-29T14:39:52;5.68;;;2.00;;
26502;SDS011;14177;51.520;6.764;2022-07-29T14:42:20;6.55;;;1.80;;
26502;SDS011;14177;51.520;6.764;2022-07-29T14:44:47;3.65;;;1.90;;
26502;SDS011;14177;51.520;6.764;2022-07-29T14:47:15;4.75;;;1.63;;
26502;SDS011;14177;51.520;6.764;2022-07-29T14:49:42;4.95;;;1.88;;
26502;SDS011;14177;51.520;6.764;2022-07-29T14:52:09;3.00;;;1.65;;
26502;SDS011;14177;51.520;6.764;2022-07-29T14:54:36;4.82;;;1.58;;
26502;SDS011;14177;51.520;6.764;2022-07-29T14:57:03;4.22;;;1.63;;
26502;SDS011;14177;51.520;6.764;2022-07-29T14:59:30;4.95;;;1.73;;
26502;SDS011;14177;51.520;6.764;2022-07-29T15:01:57;5.78;;;1.40;;
26502;SDS011;14177;51.520;6.764;2022-07-29T15:04:24;6.82;;;2.28;;
26502;SDS011;14177;51.520;6.764;2022-07-29T15:06:51;5.38;;;1.90;;
26502;SDS011;14177;51.520;6.764;2022-07-29T15:09:18;4.65;;;1.63;;
26502;SDS011;14177;51.520;6.764;2022-07-29T15:11:45;5.47;;;1.63;;
26502;SDS011;14177;51.520;6.764;2022-07-29T15:14:12;8.95;;;1.38;;
26502;SDS011;14177;51.520;6.764;2022-07-29T15:16:39;3.97;;;1.60;;
26502;SDS011;14177;51.520;6.764;2022-07-29T15:19:09;5.07;;;1.38;;
26502;SDS011;14177;51.520;6.764;2022-07-29T15:21:36;3.92;;;1.30;;
26502;SDS011;14177;51.520;6.764;2022-07-29T15:24:14;5.30;;;1.30;;
26502;SDS011;14177;51.520;6.764;2022-07-29T15:26:43;4.35;;;1.48;;
26502;SDS011;14177;51.520;6.764;2022-07-29T15:29:10;9.15;;;2.20;;
26502;SDS011;14177;51.520;6.764;2022-07-29T15:31:37;7.53;;;2.08;;
26502;SDS011;14177;51.520;6.764;2022-07-29T15:34:05;3.40;;;1.38;;
26502;SDS011;14177;51.520;6.764;2022-07-29T15:36:32;4.50;;;1.50;;
26502;SDS011;14177;51.520;6.764;2022-07-29T15:39:19;2.85;;;1.60;;
26502;SDS011;14177;51.520;6.764;2022-07-29T15:41:48;4.60;;;1.52;;
26502;SDS011;14177;51.520;6.764;2022-07-29T15:44:16;8.82;;;1.63;;
26502;SDS011;14177;51.520;6.764;2022-07-29T15:46:43;4.32;;;1.60;;
26502;SDS011;14177;51.520;6.764;2022-07-29T15:49:41;5.47;;;1.48;;
26502;SDS011;14177;51.520;6.764;2022-07-29T15:52:26;3.40;;;1.70;;
26502;SDS011;14177;51.520;6.764;2022-07-29T15:59:11;4.55;;;1.45;;
26502;SDS011;14177;51.520;6.764;2022-07-29T16:02:23;3.75;;;1.50;;
26502;SDS011;14177;51.520;6.764;2022-07-29T16:04:50;4.35;;;1.55;;
26502;SDS011;14177;51.520;6.764;2022-07-29T16:11:15;5.80;;;1.35;;
26502;SDS011;14177;51.520;6.764;2022-07-29T16:13:47;3.33;;;1.80;;